Time;durP1;ratioP1;P1;durP2;ratioP2;P2;SDS_P1;SDS_P2;PMS_P1;PMS_P2;Temp;Humidity;BMP_temperature;BMP_pressure;BME280_temperature;BME280_humidity;BME280_pressure;Samples;Min_cycle;Max_cycle;Signal;HPM_P1;HPM_P2
2022/08/25 00:00:12;;;;;;;5.40;2.80;;;20.40;99.90;;;;;;5012646;28;20045;-67
2022/08/25 00:03:54;;;;;;;6.43;2.65;;;20.20;99.90;;;;;;5012328;28;20507;-67
2022/08/25 00:06:58;;;;;;;4.10;2.72;;;20.20;99.90;;;;;;5012671;28;20033;-68
2022/08/25 00:10:21;;;;;;;4.15;2.70;;;20.10;99.90;;;;;;5012758;28;20041;-67
2022/08/25 00:13:25;;;;;;;4.78;2.60;;;20.10;99.90;;;;;;5012480;28;20401;-67
2022/08/25 00:16:30;;;;;;;7.43;3.60;;;20.10;99.90;;;;;;5012900;28;20060;-68
2022/08/25 00:19:36;;;;;;;11.13;2.88;;;20.10;99.90;;;;;;5012306;28;20053;-67
2022/08/25 00:22:40;;;;;;;3.50;2.42;;;20.00;99.90;;;;;;5012434;28;20045;-67
2022/08/25 00:25:44;;;;;;;5.82;2.53;;;20.10;99.90;;;;;;5012207;28;20495;-67
2022/08/25 00:29:08;;;;;;;4.68;2.85;;;20.10;99.90;;;;;;5011662;28;20049;-67
2022/08/25 00:32:31;;;;;;;3.00;2.25;;;20.10;99.90;;;;;;5012062;28;20521;-67
2022/08/25 00:35:35;;;;;;;6.45;2.70;;;20.10;99.90;;;;;;5011639;28;20049;-68
2022/08/25 00:38:40;;;;;;;5.80;2.65;;;20.10;99.90;;;;;;5012010;28;20048;-68
2022/08/25 00:42:05;;;;;;;3.90;2.65;;;20.00;99.90;;;;;;5009512;28;20053;-68
2022/08/25 00:45:09;;;;;;;4.05;2.80;;;19.80;99.90;;;;;;5011020;28;20052;-68
2022/08/25 00:48:13;;;;;;;3.83;2.72;;;19.70;99.90;;;;;;5011212;28;20044;-68
2022/08/25 00:51:29;;;;;;;4.55;2.70;;;19.70;99.90;;;;;;5011375;28;20067;-68
2022/08/25 00:54:40;;;;;;;11.20;2.80;;;19.70;99.90;;;;;;5011001;28;20602;-68
2022/08/25 00:57:55;;;;;;;6.45;3.00;;;19.70;99.90;;;;;;5011310;28;20045;-68
2022/08/25 01:00:59;;;;;;;4.50;2.63;;;19.70;99.90;;;;;;5011297;28;20053;-68
2022/08/25 01:04:03;;;;;;;6.28;3.50;;;19.60;99.90;;;;;;5011124;28;20499;-68
2022/08/25 01:07:07;;;;;;;3.92;2.50;;;19.60;99.90;;;;;;5011282;28;20045;-68
2022/08/25 01:10:30;;;;;;;4.70;3.05;;;19.60;99.90;;;;;;5011546;28;20049;-68
2022/08/25 01:13:43;;;;;;;5.18;3.22;;;19.70;99.90;;;;;;5010672;28;20515;-68
2022/08/25 01:16:48;;;;;;;4.32;2.92;;;19.60;99.90;;;;;;5011379;28;20049;-68
2022/08/25 01:20:12;;;;;;;4.07;2.92;;;19.60;99.90;;;;;;5011511;28;20044;-67
2022/08/25 01:23:35;;;;;;;5.20;3.15;;;19.60;99.90;;;;;;5010439;28;20048;-68
2022/08/25 01:26:39;;;;;;;7.20;3.40;;;19.50;99.90;;;;;;5012000;28;20041;-67
2022/08/25 01:29:43;;;;;;;5.22;2.97;;;19.50;99.90;;;;;;5011194;28;20037;-67
2022/08/25 01:32:48;;;;;;;4.53;3.22;;;19.40;99.90;;;;;;5011270;28;20483;-68
2022/08/25 01:36:10;;;;;;;6.13;3.45;;;19.40;99.90;;;;;;5011490;28;20070;-68
2022/08/25 01:39:14;;;;;;;4.82;3.25;;;19.40;99.90;;;;;;5011114;28;20052;-68
2022/08/25 01:43:10;;;;;;;4.55;3.20;;;19.40;99.90;;;;;;5011001;28;20049;-68
2022/08/25 01:46:14;;;;;;;5.75;3.28;;;19.50;99.90;;;;;;5010694;28;20056;-67
2022/08/25 01:49:19;;;;;;;5.45;3.20;;;19.40;99.90;;;;;;5010501;28;20045;-68
2022/08/25 01:52:26;;;;;;;6.05;3.65;;;19.40;99.90;;;;;;5010806;28;20049;-68
2022/08/25 01:55:50;;;;;;;5.05;3.42;;;19.30;99.90;;;;;;5010502;28;20060;-69
2022/08/25 02:06:00;;;;;;;;;;;18.70;99.90;;;;;;5011036;28;20057;-68
2022/08/25 02:09:25;;;;;;;4.60;3.30;;;18.80;99.90;;;;;;5010634;28;19913;-68
2022/08/25 02:12:31;;;;;;;4.10;2.92;;;18.80;99.90;;;;;;5010967;28;20057;-68
2022/08/25 02:15:41;;;;;;;7.95;3.10;;;18.80;99.90;;;;;;5010029;28;20057;-68
2022/08/25 02:22:08;;;;;;;6.28;3.53;;;18.90;99.90;;;;;;5010189;28;20407;-67
2022/08/25 02:25:12;;;;;;;6.50;3.40;;;18.90;99.90;;;;;;5009706;28;20053;-67
2022/08/25 02:28:16;;;;;;;4.60;3.15;;;18.90;99.90;;;;;;5010330;28;20503;-68
2022/08/25 02:34:47;;;;;;;5.75;2.97;;;18.90;99.90;;;;;;5009877;28;20045;-68
2022/08/25 02:38:29;;;;;;;6.80;3.55;;;18.90;99.90;;;;;;5010255;28;20049;-68
2022/08/25 02:41:51;;;;;;;7.55;3.10;;;18.80;99.90;;;;;;5009272;28;20057;-68
2022/08/25 02:44:56;;;;;;;5.47;3.75;;;18.80;99.90;;;;;;5009652;28;20049;-68
2022/08/25 02:47:59;;;;;;;5.90;3.75;;;18.90;99.90;;;;;;5010272;28;20501;-68
2022/08/25 02:51:07;;;;;;;8.07;3.58;;;18.90;99.90;;;;;;5010334;28;20393;-68
2022/08/25 02:54:11;;;;;;;5.63;3.45;;;18.90;99.90;;;;;;5009813;28;20044;-68
2022/08/25 02:57:15;;;;;;;5.72;3.20;;;18.80;99.90;;;;;;5010221;28;20064;-68
2022/08/25 03:00:20;;;;;;;6.60;4.10;;;18.70;99.90;;;;;;5009876;28;20049;-67
2022/08/25 03:03:25;;;;;;;5.50;3.80;;;18.60;99.90;;;;;;5009535;28;20058;-68
2022/08/25 03:06:29;;;;;;;7.22;4.18;;;18.70;99.90;;;;;;5010128;28;20041;-68
2022/08/25 03:09:34;;;;;;;10.00;4.00;;;18.70;99.90;;;;;;5010054;28;20037;-68
2022/08/25 03:12:40;;;;;;;9.07;4.88;;;18.80;99.90;;;;;;5009882;28;20037;-68
2022/08/25 03:15:45;;;;;;;8.65;4.22;;;18.80;99.90;;;;;;5010019;28;20049;-68
2022/08/25 03:18:49;;;;;;;8.15;4.00;;;18.90;99.90;;;;;;5009687;28;20409;-68
2022/08/25 03:21:55;;;;;;;4.97;3.60;;;18.80;99.90;;;;;;5009833;28;20057;-68
2022/08/25 03:26:52;;;;;;;5.28;3.50;;;18.70;99.90;;;;;;5013013;28;20041;-68
2022/08/25 03:28:23;;;;;;;6.53;3.47;;;18.70;99.90;;;;;;5013246;28;20041;-68
2022/08/25 03:31:27;;;;;;;6.95;3.55;;;18.70;99.90;;;;;;5013524;28;20044;-68
2022/08/25 03:34:31;;;;;;;5.90;3.53;;;18.70;99.90;;;;;;5013075;28;20053;-68
2022/08/25 03:37:36;;;;;;;8.95;4.50;;;18.70;99.90;;;;;;5013275;28;20049;-67
2022/08/25 03:40:59;;;;;;;7.63;4.45;;;18.60;99.90;;;;;;5012337;28;20057;-68
2022/08/25 03:44:41;;;;;;;8.70;4.07;;;18.50;99.90;;;;;;5012494;28;20392;-68
2022/08/25 03:47:47;;;;;;;6.82;3.63;;;18.30;99.90;;;;;;5012812;28;20200;-68
2022/08/25 03:50:53;;;;;;;5.93;4.20;;;18.10;99.90;;;;;;5013139;28;20049;-69
2022/08/25 03:53:58;;;;;;;7.60;3.67;;;18.10;99.90;;;;;;5012768;28;20066;-68
2022/08/25 03:57:02;;;;;;;8.82;3.97;;;18.10;99.90;;;;;;5013253;28;20049;-68
2022/08/25 04:00:08;;;;;;;6.38;4.00;;;18.20;99.90;;;;;;5012919;28;20392;-67
2022/08/25 04:03:17;;;;;;;5.32;3.38;;;18.20;99.90;;;;;;5012362;28;20056;-67
2022/08/25 04:06:22;;;;;;;6.28;3.90;;;18.30;99.90;;;;;;5012960;28;20070;-68
2022/08/25 04:09:26;;;;;;;7.32;4.65;;;18.30;99.90;;;;;;5012441;28;20045;-68
2022/08/25 04:12:49;;;;;;;5.82;3.97;;;18.30;99.90;;;;;;5012341;28;20045;-68
2022/08/25 04:15:52;;;;;;;6.70;4.30;;;18.20;99.90;;;;;;5012534;28;20041;-68
2022/08/25 04:18:59;;;;;;;6.32;4.15;;;18.20;99.90;;;;;;5012532;28;20064;-68
2022/08/25 04:22:22;;;;;;;6.22;3.72;;;18.10;99.90;;;;;;5011810;28;20511;-68
2022/08/25 04:25:26;;;;;;;5.20;3.72;;;17.90;99.90;;;;;;5011669;28;20061;-68
2022/08/25 04:28:30;;;;;;;5.55;3.65;;;17.90;99.90;;;;;;5012241;28;20045;-68
2022/08/25 04:31:35;;;;;;;8.23;4.18;;;17.90;99.90;;;;;;5012121;28;20404;-68
2022/08/25 04:34:40;;;;;;;6.38;3.63;;;17.90;99.90;;;;;;5011298;28;20049;-68
2022/08/25 04:37:46;;;;;;;10.95;4.57;;;17.90;99.90;;;;;;5012136;28;20531;-68
2022/08/25 04:40:58;;;;;;;11.40;4.32;;;18.00;99.90;;;;;;5012081;28;20049;-67
2022/08/25 04:44:03;;;;;;;6.07;4.20;;;18.00;99.90;;;;;;5011358;28;20048;-68
2022/08/25 04:47:08;;;;;;;6.80;4.32;;;18.10;99.90;;;;;;5011961;28;20045;-68
2022/08/25 04:50:12;;;;;;;8.43;4.10;;;18.10;99.90;;;;;;5011852;28;20045;-68
2022/08/25 04:53:36;;;;;;;9.00;4.20;;;18.20;99.90;;;;;;5011299;28;20041;-68
2022/08/25 04:56:40;;;;;;;6.70;4.15;;;18.20;99.90;;;;;;5011883;28;20041;-68
2022/08/25 05:00:04;;;;;;;6.07;3.80;;;18.10;99.90;;;;;;5011582;28;20056;-68
2022/08/25 05:03:08;;;;;;;7.53;3.88;;;18.10;99.90;;;;;;5011792;28;20057;-68
2022/08/25 05:06:13;;;;;;;7.05;4.00;;;18.20;99.90;;;;;;5011593;28;20045;-68
2022/08/25 05:09:17;;;;;;;5.28;3.80;;;18.30;99.90;;;;;;5012166;28;20045;-67
2022/08/25 05:12:21;;;;;;;10.18;4.22;;;18.40;99.90;;;;;;5012474;28;20053;-67
2022/08/25 05:19:07;;;;;;;9.18;4.07;;;18.50;99.90;;;;;;5012155;28;20483;-68
2022/08/25 05:22:12;;;;;;;11.55;4.55;;;18.60;99.90;;;;;;5011326;28;20161;-68
2022/08/25 05:25:15;;;;;;;8.15;3.70;;;19.60;99.90;;;;;;5010656;28;20044;-68
2022/08/25 05:28:20;;;;;;;8.48;3.85;;;22.60;99.90;;;;;;5010842;28;20057;-68
2022/08/25 05:31:44;;;;;;;6.60;3.50;;;25.00;99.90;;;;;;5011106;28;20512;-68
2022/08/25 05:35:07;;;;;;;9.15;3.55;;;26.60;99.90;;;;;;5010476;28;20053;-68
2022/08/25 05:38:11;;;;;;;9.57;3.00;;;28.80;99.90;;;;;;5011051;28;20049;-68
2022/08/25 05:41:18;;;;;;;4.05;2.70;;;29.00;99.90;;;;;;5010355;28;20048;-68
2022/08/25 05:44:23;;;;;;;6.15;3.58;;;30.20;99.90;;;;;;5010004;28;20049;-67
2022/08/25 05:47:27;;;;;;;7.80;2.85;;;30.80;98.80;;;;;;5010596;28;20045;-67
2022/08/25 05:50:31;;;;;;;3.88;2.60;;;31.20;98.40;;;;;;5010736;28;20044;-67
2022/08/25 05:53:36;;;;;;;6.15;3.00;;;31.60;97.90;;;;;;5008970;28;20104;-68
2022/08/25 05:57:00;;;;;;;4.28;3.00;;;32.50;96.60;;;;;;5010600;28;20053;-67
2022/08/25 06:00:05;;;;;;;5.38;3.20;;;31.30;96.00;;;;;;5010527;28;20044;-67
2022/08/25 06:03:34;;;;;;;6.60;2.72;;;31.90;96.90;;;;;;5010139;28;20381;-67
2022/08/25 06:06:38;;;;;;;4.55;2.45;;;33.00;94.60;;;;;;5010854;28;20048;-67
2022/08/25 06:09:45;;;;;;;2.83;2.53;;;32.80;94.30;;;;;;5010927;28;20048;-68
2022/08/25 06:12:49;;;;;;;4.07;2.50;;;32.70;93.70;;;;;;5010498;28;20049;-68
2022/08/25 06:15:57;;;;;;;5.82;2.60;;;32.60;93.60;;;;;;5016723;28;20049;-68
2022/08/25 06:19:01;;;;;;;7.40;3.00;;;32.80;93.60;;;;;;5016870;28;20048;-68
2022/08/25 06:22:05;;;;;;;7.00;2.78;;;32.70;93.40;;;;;;5015993;28;20041;-68
2022/08/25 06:25:31;;;;;;;5.30;2.65;;;32.20;93.30;;;;;;5016322;28;20053;-68
2022/08/25 06:28:36;;;;;;;3.85;2.85;;;30.80;93.70;;;;;;5018764;28;20087;-68
2022/08/25 06:31:42;;;;;;;4.43;2.70;;;30.00;94.60;;;;;;5030059;28;20061;-68
2022/08/25 06:34:48;;;;;;;3.45;2.60;;;30.60;94.40;;;;;;5009707;28;20041;-68
2022/08/25 06:37:53;;;;;;;4.03;2.50;;;31.50;93.70;;;;;;5022017;28;20044;-68
2022/08/25 06:41:01;;;;;;;5.35;3.08;;;31.50;93.40;;;;;;5010661;28;20389;-68
2022/08/25 06:44:05;;;;;;;9.18;2.45;;;31.40;93.60;;;;;;5007689;28;20053;-68
2022/08/25 06:47:10;;;;;;;5.63;2.40;;;31.50;93.80;;;;;;5021810;28;20048;-68
2022/08/25 06:50:14;;;;;;;5.72;2.50;;;31.50;93.60;;;;;;5030359;28;20052;-67
2022/08/25 06:53:18;;;;;;;3.63;2.30;;;31.90;93.10;;;;;;5010515;28;20488;-67
2022/08/25 06:56:22;;;;;;;4.20;2.60;;;32.20;93.10;;;;;;5014177;28;20053;-67
2022/08/25 06:59:46;;;;;;;3.67;2.60;;;33.30;91.90;;;;;;5021429;28;20040;-68
2022/08/25 07:02:50;;;;;;;2.85;2.40;;;34.00;91.30;;;;;;5033756;28;20037;-68
2022/08/25 07:06:32;;;;;;;6.95;2.35;;;34.00;91.20;;;;;;5014261;28;20041;-67
2022/08/25 07:09:54;;;;;;;4.18;2.70;;;34.10;90.90;;;;;;5022887;28;20388;-68
2022/08/25 07:12:58;;;;;;;3.10;2.05;;;34.00;89.60;;;;;;5023047;28;20044;-68
2022/08/25 07:16:02;;;;;;;2.95;2.15;;;33.50;89.90;;;;;;5033497;28;20048;-67
2022/08/25 07:19:25;;;;;;;3.15;2.60;;;33.50;90.30;;;;;;5013814;28;20040;-69
2022/08/25 07:22:49;;;;;;;7.97;2.97;;;31.40;91.40;;;;;;5025147;28;20052;-68
2022/08/25 07:29:25;;;;;;;8.90;3.08;;;31.60;91.40;;;;;;5025289;28;20037;-68
2022/08/25 07:32:29;;;;;;;3.30;2.70;;;32.50;90.90;;;;;;5013462;28;20495;-68
2022/08/25 07:35:35;;;;;;;4.60;2.67;;;31.90;91.30;;;;;;5024362;28;20064;-69
2022/08/25 07:42:02;;;;;;;4.70;2.97;;;32.20;90.20;;;;;;5011973;28;20381;-69
2022/08/25 07:45:06;;;;;;;4.78;2.67;;;33.20;89.60;;;;;;5017171;28;20045;-68
2022/08/25 07:51:33;;;;;;;5.68;2.75;;;31.80;90.60;;;;;;5012968;28;20041;-68
2022/08/25 07:54:38;;;;;;;7.60;3.03;;;32.60;91.50;;;;;;5016487;28;20037;-68
2022/08/25 07:57:42;;;;;;;6.40;3.28;;;32.60;90.40;;;;;;5032544;28;20052;-68
2022/08/25 08:00:47;;;;;;;3.40;2.60;;;32.10;90.50;;;;;;5030999;28;20041;-68
2022/08/25 08:03:51;;;;;;;6.20;3.00;;;32.40;91.60;;;;;;5014743;28;20405;-68
2022/08/25 08:06:55;;;;;;;6.28;3.03;;;34.80;90.30;;;;;;5013425;28;20460;-68
2022/08/25 08:10:18;;;;;;;3.72;2.60;;;35.80;87.60;;;;;;5012677;28;20048;-69
2022/08/25 08:13:22;;;;;;;10.30;2.97;;;36.80;86.50;;;;;;5024325;28;20052;-68
2022/08/25 08:16:28;;;;;;;6.32;2.67;;;37.70;83.60;;;;;;5030601;28;20527;-68
2022/08/25 08:22:55;;;;;;;3.58;2.72;;;37.70;84.10;;;;;;5022596;28;20065;-68
2022/08/25 08:26:00;;;;;;;6.60;3.20;;;37.10;82.30;;;;;;5022769;28;20049;-68
2022/08/25 08:29:04;;;;;;;3.92;2.38;;;37.00;81.80;;;;;;5026587;28;20041;-68
2022/08/25 08:32:12;;;;;;;5.60;2.70;;;38.40;80.10;;;;;;5026567;28;20048;-67
2022/08/25 08:35:17;;;;;;;4.68;2.60;;;39.40;79.20;;;;;;5024372;28;20676;-68
2022/08/25 08:39:18;;;;;;;4.93;2.50;;;37.80;79.90;;;;;;5025482;28;20503;-68
2022/08/25 08:42:37;;;;;;;2.88;2.58;;;38.60;79.70;;;;;;5013026;28;20074;-68
2022/08/25 08:45:50;;;;;;;6.03;2.60;;;40.60;75.20;;;;;;5015926;28;20040;-68
2022/08/25 08:49:09;;;;;;;3.58;2.20;;;39.00;76.10;;;;;;5013352;28;20368;-68
2022/08/25 08:52:16;;;;;;;4.28;2.50;;;39.40;76.10;;;;;;5021284;28;20045;-68
2022/08/25 08:55:29;;;;;;;2.75;2.53;;;40.50;74.90;;;;;;5013105;28;20041;-68
2022/08/25 08:58:47;;;;;;;3.10;2.30;;;39.50;74.60;;;;;;5028182;28;20041;-68
2022/08/25 09:01:58;;;;;;;3.20;2.50;;;40.20;74.70;;;;;;5030437;28;20053;-69
2022/08/25 09:05:13;;;;;;;2.70;2.28;;;41.30;73.90;;;;;;5027293;28;20052;-68
2022/08/25 09:08:17;;;;;;;3.28;2.40;;;41.40;72.60;;;;;;5018420;28;20045;-68
2022/08/25 09:11:48;;;;;;;5.15;2.33;;;40.30;72.50;;;;;;5012481;28;20041;-69
2022/08/25 09:15:22;;;;;;;5.72;2.63;;;41.70;71.40;;;;;;5011624;28;20045;-69
2022/08/25 09:18:45;;;;;;;4.70;2.25;;;42.40;70.50;;;;;;5016651;28;20065;-69
2022/08/25 09:21:52;;;;;;;3.72;2.38;;;42.50;70.30;;;;;;5015996;28;20088;-69
2022/08/25 09:25:16;;;;;;;2.80;2.30;;;43.30;69.70;;;;;;5030232;28;20048;-69
2022/08/25 09:28:52;;;;;;;4.28;2.10;;;42.70;68.80;;;;;;5018127;28;20484;-69
2022/08/25 09:31:59;;;;;;;2.60;2.00;;;43.60;67.30;;;;;;5020291;28;20033;-68
2022/08/25 09:35:05;;;;;;;3.35;1.90;;;45.10;66.70;;;;;;5010567;28;20397;-69
2022/08/25 09:38:11;;;;;;;3.00;2.20;;;46.50;65.30;;;;;;5019964;28;20048;-68
2022/08/25 09:41:33;;;;;;;2.47;2.25;;;47.10;64.00;;;;;;5015556;28;20054;-69
2022/08/25 09:44:44;;;;;;;4.32;1.90;;;47.50;63.40;;;;;;5010255;28;20121;-69
2022/08/25 09:47:48;;;;;;;3.00;2.00;;;47.90;62.00;;;;;;5024992;28;20037;-68
2022/08/25 09:51:00;;;;;;;2.28;1.88;;;47.70;62.20;;;;;;5010632;28;20049;-69
2022/08/25 09:54:13;;;;;;;3.72;2.25;;;47.80;62.40;;;;;;5011272;28;20041;-69
2022/08/25 09:57:47;;;;;;;4.22;2.00;;;48.10;61.00;;;;;;5012842;28;20037;-69
2022/08/25 10:01:16;;;;;;;2.13;1.80;;;48.40;61.10;;;;;;5030232;28;20052;-69
2022/08/25 10:04:38;;;;;;;2.88;1.92;;;48.00;60.00;;;;;;5011974;28;20041;-69
2022/08/25 10:07:50;;;;;;;4.40;2.03;;;48.10;59.90;;;;;;5016670;28;20045;-69
2022/08/25 10:11:14;;;;;;;2.95;2.17;;;47.00;59.80;;;;;;5030180;28;20076;-68
2022/08/25 10:14:33;;;;;;;2.03;1.77;;;48.00;59.70;;;;;;5011042;28;20041;-66
2022/08/25 10:17:38;;;;;;;4.30;1.88;;;48.70;59.60;;;;;;5020102;28;20053;-69
2022/08/25 10:27:59;;;;;;;2.35;2.13;;;42.80;61.20;;;;;;5009987;28;20057;-69
2022/08/25 10:31:07;;;;;;;3.40;1.90;;;43.60;62.10;;;;;;5023870;28;20044;-65
2022/08/25 10:34:30;;;;;;;4.65;1.60;;;45.80;60.70;;;;;;5033047;28;20040;-68
2022/08/25 10:37:41;;;;;;;3.55;1.60;;;47.90;59.70;;;;;;5018725;28;20052;-68
2022/08/25 10:41:06;;;;;;;5.60;1.80;;;48.60;58.50;;;;;;5033739;28;20053;-68
2022/08/25 10:48:11;;;;;;;1.67;1.58;;;47.70;59.50;;;;;;5019425;28;20495;-66
2022/08/25 10:51:36;;;;;;;;;;;49.80;57.90;;;;;;5031074;28;20037;-66
2022/08/25 10:54:52;;;;;;;3.22;1.63;;;50.50;57.60;;;;;;5013435;28;19932;-66
2022/08/25 10:58:26;;;;;;;3.35;1.55;;;51.60;56.60;;;;;;5028936;28;20057;-67
2022/08/25 11:01:32;;;;;;;2.63;1.75;;;49.90;55.90;;;;;;5029624;28;20045;-66
2022/08/25 11:05:06;;;;;;;2.45;1.70;;;48.60;57.00;;;;;;5020995;28;20045;-68
2022/08/25 11:08:27;;;;;;;5.95;2.00;;;47.90;58.20;;;;;;5023335;28;20044;-69
2022/08/25 11:12:20;;;;;;;4.05;1.67;;;48.20;56.60;;;;;;5033119;28;20392;-69
2022/08/25 11:15:37;;;;;;;2.30;1.50;;;47.10;57.60;;;;;;5014122;28;20049;-68
2022/08/25 11:19:30;;;;;;;3.45;2.00;;;46.10;57.70;;;;;;5021199;28;20500;-68
2022/08/25 11:23:11;;;;;;;3.67;1.83;;;45.80;59.70;;;;;;5016667;28;20048;-68
2022/08/25 11:26:23;;;;;;;3.45;1.90;;;47.00;58.10;;;;;;5022402;28;20405;-69
2022/08/25 11:29:52;;;;;;;4.95;1.70;;;48.00;56.90;;;;;;5013364;28;20404;-68
2022/08/25 11:32:56;;;;;;;3.17;1.95;;;45.60;56.40;;;;;;5013231;28;20053;-69
2022/08/25 11:36:23;;;;;;;4.85;1.90;;;46.00;57.10;;;;;;5014571;28;20040;-68
2022/08/25 11:40:34;;;;;;;2.47;1.90;;;44.50;59.00;;;;;;5012127;28;20045;-68
2022/08/25 11:44:46;;;;;;;2.00;1.80;;;44.80;57.90;;;;;;5011436;28;20065;-68
2022/08/25 11:48:22;;;;;;;4.90;1.90;;;43.60;59.70;;;;;;5012582;28;20130;-68
2022/08/25 11:51:32;;;;;;;6.22;2.15;;;43.40;58.80;;;;;;5014002;28;20448;-69
2022/08/25 11:54:56;;;;;;;3.33;2.17;;;44.80;57.30;;;;;;5023604;28;20060;-69
2022/08/25 11:58:33;;;;;;;1.75;1.58;;;46.20;55.90;;;;;;5013100;28;20041;-66
2022/08/25 12:01:41;;;;;;;3.15;2.05;;;47.10;56.20;;;;;;5013903;28;20487;-66
2022/08/25 12:04:47;;;;;;;2.35;1.70;;;46.50;56.10;;;;;;5018466;28;20045;-68
2022/08/25 12:11:37;;;;;;;3.45;2.03;;;44.40;58.00;;;;;;5012873;28;20048;-68
2022/08/25 12:14:43;;;;;;;3.60;2.22;;;41.00;59.90;;;;;;5025530;28;20045;-69
2022/08/25 12:18:13;;;;;;;3.17;1.67;;;39.70;62.00;;;;;;5021738;28;20384;-68
2022/08/25 12:21:29;;;;;;;5.28;1.92;;;42.90;59.90;;;;;;5025657;28;20036;-68
2022/08/25 12:24:42;;;;;;;2.10;1.85;;;41.00;60.20;;;;;;5032554;28;20621;-69
2022/08/25 12:28:25;;;;;;;2.35;2.08;;;43.30;59.70;;;;;;5032087;28;20056;-69
2022/08/25 12:32:06;;;;;;;3.85;1.83;;;44.10;58.00;;;;;;5031148;28;20506;-68
2022/08/25 12:35:29;;;;;;;3.85;1.83;;;44.70;57.90;;;;;;5025833;28;20503;-68
2022/08/25 12:38:42;;;;;;;2.80;1.60;;;45.60;57.80;;;;;;5031768;28;20044;-68
2022/08/25 12:42:00;;;;;;;3.40;1.90;;;45.00;58.20;;;;;;5030989;28;20040;-69
2022/08/25 12:45:19;;;;;;;4.60;2.03;;;40.00;59.40;;;;;;5029252;28;20049;-69
2022/08/25 12:48:26;;;;;;;2.97;1.90;;;40.20;62.50;;;;;;5032152;28;20049;-68
2022/08/25 12:55:04;;;;;;;3.78;2.10;;;39.80;62.30;;;;;;5031551;28;20040;-68
2022/08/25 12:58:10;;;;;;;3.72;2.25;;;41.00;61.50;;;;;;5026290;28;20590;-68
2022/08/25 13:01:35;;;;;;;4.75;2.00;;;41.80;61.30;;;;;;5012323;28;20052;-68
2022/08/25 13:04:57;;;;;;;4.03;2.10;;;41.20;62.80;;;;;;5011907;28;20057;-69
2022/08/25 13:08:23;;;;;;;4.40;1.70;;;40.90;61.40;;;;;;5016736;28;20060;-68
2022/08/25 13:11:38;;;;;;;3.28;2.20;;;39.30;63.40;;;;;;5030987;28;20045;-67
2022/08/25 13:14:45;;;;;;;2.50;1.88;;;41.20;61.70;;;;;;5030455;28;20037;-68
2022/08/25 13:17:48;;;;;;;4.05;2.10;;;42.00;60.50;;;;;;5031695;28;20048;-68
2022/08/25 13:21:14;;;;;;;3.15;2.40;;;40.70;60.90;;;;;;5031443;28;20044;-67
2022/08/25 13:24:28;;;;;;;4.88;2.15;;;37.00;64.90;;;;;;5031383;28;20045;-68
2022/08/25 13:27:35;;;;;;;3.30;2.40;;;36.90;64.30;;;;;;5031335;28;20044;-68
2022/08/25 13:30:40;;;;;;;2.53;2.17;;;36.50;65.30;;;;;;5031665;28;20041;-68
2022/08/25 13:34:10;;;;;;;3.25;2.20;;;38.50;62.90;;;;;;5031598;28;20037;-68
2022/08/25 13:37:28;;;;;;;3.05;2.28;;;38.30;62.80;;;;;;5031865;28;20052;-68
2022/08/25 13:40:35;;;;;;;3.85;2.50;;;37.90;63.70;;;;;;5030745;28;20077;-68
2022/08/25 13:43:39;;;;;;;6.00;2.88;;;38.80;62.90;;;;;;5029880;28;20052;-68
2022/08/25 13:46:44;;;;;;;3.08;2.42;;;37.20;65.50;;;;;;5031113;28;20040;-68
2022/08/25 13:49:48;;;;;;;5.22;2.28;;;36.90;65.00;;;;;;5031017;28;20506;-68
2022/08/25 13:52:56;;;;;;;3.22;2.45;;;35.90;66.80;;;;;;5031042;28;20044;-68
2022/08/25 13:56:32;;;;;;;3.88;2.60;;;36.00;65.90;;;;;;5031266;28;20389;-69
2022/08/25 13:59:39;;;;;;;3.45;2.33;;;34.80;67.20;;;;;;5030937;28;20045;-68
2022/08/25 14:02:52;;;;;;;2.47;2.08;;;36.40;66.90;;;;;;5030596;28;20503;-68
2022/08/25 14:06:14;;;;;;;4.95;2.47;;;36.30;67.40;;;;;;5030402;28;20048;-67
2022/08/25 14:09:18;;;;;;;2.60;2.08;;;35.40;69.40;;;;;;5030975;28;20036;-68
2022/08/25 14:12:46;;;;;;;4.43;2.58;;;35.30;68.50;;;;;;5031462;28;20052;-68
2022/08/25 14:15:50;;;;;;;4.82;2.38;;;36.10;69.60;;;;;;5031145;28;20044;-67
2022/08/25 14:18:56;;;;;;;2.85;2.13;;;36.40;66.50;;;;;;5030909;28;20052;-67
2022/08/25 14:22:01;;;;;;;4.63;2.28;;;35.90;65.60;;;;;;5031293;28;20052;-67
2022/08/25 14:25:06;;;;;;;3.45;2.20;;;35.70;67.00;;;;;;5031228;28;20048;-69
2022/08/25 14:28:17;;;;;;;5.90;2.50;;;35.20;66.30;;;;;;5030995;28;20056;-68
2022/08/25 14:31:29;;;;;;;3.85;2.00;;;35.30;68.10;;;;;;5031061;28;20044;-69
2022/08/25 14:34:35;;;;;;;2.90;2.22;;;35.00;67.80;;;;;;5030476;28;20044;-69
2022/08/25 14:38:09;;;;;;;4.25;2.78;;;34.80;68.50;;;;;;5031121;28;20041;-69
2022/08/25 14:41:13;;;;;;;3.65;2.25;;;35.10;71.30;;;;;;5030530;28;20046;-68
2022/08/25 14:44:17;;;;;;;4.35;2.40;;;35.70;69.20;;;;;;5030410;28;20037;-68
2022/08/25 14:47:21;;;;;;;5.20;2.72;;;35.90;67.40;;;;;;5030816;28;20060;-68
2022/08/25 14:50:44;;;;;;;3.70;2.15;;;36.10;67.10;;;;;;5030462;28;20503;-68
2022/08/25 14:53:49;;;;;;;3.58;2.38;;;36.20;65.80;;;;;;5029978;28;20032;-68
2022/08/25 14:56:56;;;;;;;4.32;2.53;;;36.30;66.20;;;;;;5030580;28;20049;-67
2022/08/25 15:00:19;;;;;;;7.28;2.47;;;36.00;67.00;;;;;;5030529;28;20388;-69
2022/08/25 15:03:30;;;;;;;4.30;2.50;;;35.20;68.90;;;;;;5030179;28;20399;-69
2022/08/25 15:06:34;;;;;;;2.93;2.20;;;34.60;70.40;;;;;;5030512;28;20040;-68
2022/08/25 15:09:38;;;;;;;3.55;2.50;;;35.10;69.00;;;;;;5030212;28;20049;-69
2022/08/25 15:13:01;;;;;;;4.32;2.47;;;35.50;68.20;;;;;;5030793;28;20510;-68
2022/08/25 15:16:06;;;;;;;5.18;2.60;;;35.60;67.90;;;;;;5030456;28;20388;-69
2022/08/25 15:19:14;;;;;;;4.72;2.50;;;35.50;67.40;;;;;;5032043;28;20070;-68
2022/08/25 15:22:38;;;;;;;3.15;2.30;;;35.30;67.90;;;;;;5033941;28;20064;-68
2022/08/25 15:26:00;;;;;;;3.80;2.40;;;35.00;67.20;;;;;;5033784;28;20048;-68
2022/08/25 15:29:05;;;;;;;6.85;2.70;;;34.60;69.00;;;;;;5033585;28;20056;-68
2022/08/25 15:32:28;;;;;;;5.28;2.47;;;34.40;68.80;;;;;;5033935;28;20040;-69
2022/08/25 15:35:51;;;;;;;3.58;2.20;;;34.30;69.30;;;;;;5033973;28;20048;-69
2022/08/25 15:38:56;;;;;;;2.75;2.10;;;34.40;68.70;;;;;;5034173;28;20500;-68
2022/08/25 15:42:18;;;;;;;3.92;2.40;;;34.60;68.50;;;;;;5033397;28;20056;-68
2022/08/25 15:45:22;;;;;;;2.95;2.15;;;34.80;69.00;;;;;;5033632;28;20384;-68
2022/08/25 15:48:26;;;;;;;4.20;2.20;;;34.80;69.40;;;;;;5033592;28;20048;-68
2022/08/25 15:51:31;;;;;;;4.97;3.00;;;34.70;70.30;;;;;;5033525;28;20052;-67
2022/08/25 15:54:35;;;;;;;11.90;2.40;;;34.60;68.90;;;;;;5033246;28;20179;-68
2022/08/25 16:01:24;;;;;;;3.38;2.40;;;34.10;72.10;;;;;;5032835;28;20839;-67
2022/08/25 16:04:28;;;;;;;5.18;2.70;;;33.90;70.90;;;;;;5031837;28;20510;-69
2022/08/25 16:07:32;;;;;;;5.43;2.50;;;33.60;71.80;;;;;;5033167;28;20491;-67
2022/08/25 16:14:17;;;;;;;4.50;2.40;;;33.20;71.40;;;;;;5033068;28;20514;-68
2022/08/25 16:17:22;;;;;;;5.07;2.30;;;33.20;71.10;;;;;;5032701;28;20514;-68
2022/08/25 16:20:27;;;;;;;7.03;2.65;;;33.10;70.30;;;;;;5032899;28;20049;-68
2022/08/25 16:23:31;;;;;;;4.43;2.58;;;32.90;71.30;;;;;;5032954;28;20052;-68
2022/08/25 16:26:41;;;;;;;4.70;3.03;;;32.60;71.60;;;;;;5031948;28;20048;-69
2022/08/25 16:29:45;;;;;;;7.97;2.83;;;32.40;71.30;;;;;;5032431;28;20392;-68
2022/08/25 16:33:07;;;;;;;4.00;2.63;;;32.40;71.70;;;;;;5031838;28;20037;-68
2022/08/25 16:36:19;;;;;;;5.70;3.05;;;32.30;72.50;;;;;;5032722;28;20041;-67
2022/08/25 16:39:23;;;;;;;6.70;3.20;;;32.00;73.00;;;;;;5032709;28;20037;-67
2022/08/25 16:42:27;;;;;;;4.63;2.63;;;32.10;72.30;;;;;;5032254;28;20056;-68
2022/08/25 16:45:31;;;;;;;3.92;2.50;;;32.10;72.70;;;;;;5032287;28;20495;-68
2022/08/25 16:48:36;;;;;;;6.50;2.58;;;32.20;72.40;;;;;;5032741;28;20048;-68
2022/08/25 16:51:41;;;;;;;4.32;2.53;;;32.20;72.20;;;;;;5032413;28;20056;-68
2022/08/25 16:58:08;;;;;;;4.07;2.83;;;31.80;72.50;;;;;;5032497;28;20087;-67
2022/08/25 17:01:32;;;;;;;5.85;3.00;;;31.90;72.80;;;;;;5032230;28;20060;-68
2022/08/25 17:04:37;;;;;;;5.45;2.70;;;31.70;73.20;;;;;;5032046;28;20048;-67
2022/08/25 17:07:41;;;;;;;4.22;2.78;;;31.70;73.30;;;;;;5031884;28;20044;-66
2022/08/25 17:10:46;;;;;;;5.90;3.20;;;31.60;73.40;;;;;;5031901;28;20037;-67
2022/08/25 17:14:08;;;;;;;7.55;2.78;;;31.40;73.70;;;;;;5031502;28;20487;-69
2022/08/25 17:17:12;;;;;;;4.47;2.70;;;31.30;74.00;;;;;;5031818;28;20531;-67
2022/08/25 17:20:16;;;;;;;5.70;3.13;;;31.20;74.70;;;;;;5031969;28;20064;-68
2022/08/25 17:23:20;;;;;;;5.75;3.13;;;31.10;75.30;;;;;;5031263;28;20048;-68
2022/08/25 17:26:26;;;;;;;8.68;2.72;;;31.00;75.80;;;;;;5031350;28;20048;-67
2022/08/25 17:29:33;;;;;;;4.65;3.20;;;30.90;76.30;;;;;;5031368;28;20101;-67
2022/08/25 17:32:37;;;;;;;6.45;3.40;;;30.70;76.80;;;;;;5031324;28;20491;-67
2022/08/25 17:35:45;;;;;;;3.45;2.67;;;30.60;76.30;;;;;;5031286;28;20048;-67
2022/08/25 17:38:49;;;;;;;7.03;3.30;;;30.50;76.00;;;;;;5031115;28;20040;-69
2022/08/25 17:41:53;;;;;;;5.80;3.00;;;30.30;79.00;;;;;;5030233;28;20527;-67